Online since October of 2007


Active alerts


No alerts

Bigbaywx more information Bigbaywx


mount mesnard more information Mount Mesnard


visit our other weather sites:

Template documentation
and downloads

And another site


CBI


nearby metar reports

   
KSAW - Sawyer, Michigan
updated: Nov 16 2018 12:38 am
overcast  
overcast  
   wind: south 6.9 mph
wind: south 6.9 mph
temperature: 32°F
wind chill: 26.6°F
dew point: 28.4°F
humidity: 87%
barometer: 29.67 inHg
clouds: overcast
visibility: 7 mi
cloud details: overcast 1311 m
KSAW 160538Z AUTO 17006KT 7SM OVC043 00/M02 A2967 RMK AO2 T10051024
KESC - Escanaba, Michigan
updated: Nov 15 2018 11:56 pm
overcast  
overcast  
   wind: sw 3.5 mph
wind: sw 3.5 mph
temperature: 35.6°F
wind chill: 33.8°F
dew point: 28.4°F
humidity: 75%
barometer: 29.73 inHg
clouds: overcast
visibility: 10 mi
cloud details: overcast 1463 m
KESC 160456Z AUTO 22003KT 10SM OVC048 02/M02 A2973 RMK AO2 SLP094 T00171017 400331050 FZRANO
KIMT - Iron Mountain, MI
updated: Nov 15 2018 11:54 pm
overcast  
overcast  
   wind: sse 4.6 mph
wind: sse 4.6 mph
temperature: 30.2°F
wind chill: 24.8°F
dew point: 24.8°F
humidity: 80%
barometer: 29.68 inHg
clouds: overcast
visibility: 10 mi
cloud details: mostly cloudy 1463 m,
overcast 3658 m
KIMT 160454Z AUTO 16004KT 10SM BKN048 OVC120 M01/M04 A2968 RMK AO2 SLP064 T10061039
KGRB - Green Bay, WI
updated: Nov 15 2018 11:53 pm
mostly cloudy  
mostly cloudy  
   wind: ssw 8.1 mph
wind: ssw 8.1 mph
temperature: 35.6°F
wind chill: 28.4°F
dew point: 24.8°F
humidity: 65%
barometer: 29.74 inHg
clouds: mostly cloudy
visibility: 10 mi
cloud details: partly cloudy 2134 m,
mostly cloudy 2896 m
KGRB 160453Z 20007KT 10SM SCT070 BKN095 02/M04 A2974 RMK AO2 SLP077 T00171039 $
KDET - Detroit, MI
updated: Nov 15 2018 11:53 pm
overcast  
overcast  
   wind: wsw 5.8 mph
wind: wsw 5.8 mph
temperature: 33.8°F
wind chill: 28.4°F
dew point: 30.2°F
humidity: 87%
barometer: 29.84 inHg
clouds: overcast
visibility: 9 mi
cloud details: overcast 213 m
KDET 160453Z 25005KT 9SM OVC007 01/M01 A2984 RMK AO2 SLP111 T00061006 400171017
 

script developed by  Saratoga-weather.org adapted for the template by  Weerstation Leuven

you find our weather info also at:

Weather Underground

midwestern weather network

WeatherlinkIP

Citizen Weather Observer Program (CWOP)

equipment we use:

weather-station
Davis VP2

weather-program
Davis Weatherlink.Com

Davis VP2

Davis Weatherlink.Com